THY111 OEDF-LTFM
Flight info
| Callsign | THY111 |
|---|---|
| Flight time | N/A |
| Altitude | 34000 |
| Route | TAYMA N697 BPN H999 PASIT T503 OVANO L768 MODAD/N0464F360 B544 ALE M861 NISAP UM861 MILBA UW74 ADA/N0465F350 UW74 MANAZ/N0464F360 UT244 EDASA UM855 SISPI |
| Aircraft | B738/M-SDE2E3FGHIRWXY/LB1 |
Departure
| Time | 2026-05-06 11:58 |
|---|---|
| Airport | King Fahd International Airport (OEDF) |
Arrival
| Time | N/A |
|---|---|
| Airport | İstanbul Airport (LTFM) |
| Time | Latitude | Longitude | Altitude | Speed | Heading |
|---|---|---|---|---|---|
| 2026-05-06 11:39 | 26.46640 | 49.79485 | 87 ft | 4 kts | 178° |
| 2026-05-06 11:39 | 26.46602 | 49.79485 | 86 ft | 7 kts | 181° |
| 2026-05-06 11:40 | 26.46564 | 49.79486 | 86 ft | 0 kts | 175° |
| 2026-05-06 11:47 | 26.46560 | 49.79487 | 85 ft | 2 kts | 176° |
| 2026-05-06 11:47 | 26.46533 | 49.79490 | 85 ft | 6 kts | 174° |
| 2026-05-06 11:48 | 26.46488 | 49.79485 | 84 ft | 7 kts | 206° |
| 2026-05-06 11:48 | 26.46463 | 49.79441 | 85 ft | 8 kts | 253° |
| 2026-05-06 11:48 | 26.46446 | 49.79375 | 88 ft | 10 kts | 251° |
| 2026-05-06 11:48 | 26.46425 | 49.79291 | 84 ft | 12 kts | 257° |
| 2026-05-06 11:49 | 26.46453 | 49.79207 | 87 ft | 13 kts | 338° |
| 2026-05-06 11:49 | 26.46543 | 49.79183 | 87 ft | 14 kts | 345° |
| 2026-05-06 11:49 | 26.46635 | 49.79151 | 86 ft | 14 kts | 343° |
| 2026-05-06 11:49 | 26.46733 | 49.79121 | 86 ft | 15 kts | 343° |
| 2026-05-06 11:50 | 26.46831 | 49.79090 | 85 ft | 14 kts | 344° |
| 2026-05-06 11:50 | 26.46927 | 49.79061 | 88 ft | 14 kts | 342° |
| 2026-05-06 11:50 | 26.47018 | 49.79032 | 87 ft | 13 kts | 343° |
| 2026-05-06 11:50 | 26.47106 | 49.79005 | 85 ft | 13 kts | 345° |
| 2026-05-06 11:51 | 26.47198 | 49.78977 | 85 ft | 14 kts | 345° |
| 2026-05-06 11:51 | 26.47291 | 49.78948 | 86 ft | 14 kts | 346° |
| 2026-05-06 11:51 | 26.47380 | 49.78921 | 87 ft | 13 kts | 345° |
| 2026-05-06 11:51 | 26.47466 | 49.78893 | 86 ft | 13 kts | 344° |
| 2026-05-06 11:52 | 26.47550 | 49.78868 | 87 ft | 12 kts | 342° |
| 2026-05-06 11:52 | 26.47631 | 49.78842 | 84 ft | 12 kts | 347° |
| 2026-05-06 11:52 | 26.47711 | 49.78818 | 88 ft | 12 kts | 342° |
| 2026-05-06 11:52 | 26.47793 | 49.78792 | 87 ft | 13 kts | 345° |
| 2026-05-06 11:53 | 26.47879 | 49.78765 | 89 ft | 13 kts | 345° |
| 2026-05-06 11:53 | 26.47970 | 49.78736 | 87 ft | 14 kts | 344° |
| 2026-05-06 11:53 | 26.48066 | 49.78708 | 87 ft | 14 kts | 345° |
| 2026-05-06 11:53 | 26.48163 | 49.78678 | 85 ft | 15 kts | 344° |
| 2026-05-06 11:54 | 26.48231 | 49.78655 | 86 ft | 15 kts | 343° |
| 2026-05-06 11:54 | 26.48363 | 49.78616 | 86 ft | 14 kts | 343° |
| 2026-05-06 11:54 | 26.48458 | 49.78589 | 87 ft | 14 kts | 341° |
| 2026-05-06 11:54 | 26.48551 | 49.78557 | 86 ft | 14 kts | 345° |
| 2026-05-06 11:55 | 26.48647 | 49.78527 | 84 ft | 14 kts | 346° |
| 2026-05-06 11:55 | 26.48740 | 49.78500 | 85 ft | 13 kts | 344° |
| 2026-05-06 11:55 | 26.48799 | 49.78482 | 85 ft | 13 kts | 344° |
| 2026-05-06 11:55 | 26.48884 | 49.78450 | 85 ft | 13 kts | 332° |
| 2026-05-06 11:56 | 26.48910 | 49.78390 | 84 ft | 7 kts | 254° |
| 2026-05-06 11:56 | 26.48891 | 49.78307 | 88 ft | 9 kts | 254° |
| 2026-05-06 11:56 | 26.48878 | 49.78259 | 89 ft | 10 kts | 250° |
| 2026-05-06 11:56 | 26.48830 | 49.78190 | 91 ft | 13 kts | 226° |
| 2026-05-06 11:57 | 26.48786 | 49.78161 | 90 ft | 1 kts | 173° |
| 2026-05-06 11:57 | 26.48721 | 49.78179 | 87 ft | 37 kts | 165° |
| 2026-05-06 11:57 | 26.48189 | 49.78344 | 88 ft | 120 kts | 164° |
| 2026-05-06 11:57 | 26.47152 | 49.78670 | 90 ft | 187 kts | 161° |
| 2026-05-06 11:58 | 26.45796 | 49.79105 | 675 ft | 207 kts | 162° |
| 2026-05-06 11:58 | 26.44372 | 49.79493 | 1665 ft | 212 kts | 164° |
| 2026-05-06 11:58 | 26.42998 | 49.79962 | 2670 ft | 208 kts | 165° |
| 2026-05-06 11:58 | 26.41546 | 49.80410 | 2973 ft | 226 kts | 167° |
| 2026-05-06 11:59 | 26.39978 | 49.80882 | 3379 ft | 234 kts | 166° |
| 2026-05-06 11:59 | 26.38412 | 49.81359 | 4015 ft | 232 kts | 166° |
| 2026-05-06 11:59 | 26.36854 | 49.81801 | 4597 ft | 231 kts | 175° |
| 2026-05-06 11:59 | 26.35230 | 49.81547 | 4837 ft | 246 kts | 205° |
| 2026-05-06 12:00 | 26.33850 | 49.80340 | 4966 ft | 261 kts | 234° |
| 2026-05-06 12:00 | 26.33229 | 49.78455 | 4996 ft | 265 kts | 265° |
| 2026-05-06 12:00 | 26.33636 | 49.76436 | 5035 ft | 275 kts | 291° |
| 2026-05-06 12:00 | 26.34263 | 49.74428 | 5372 ft | 276 kts | 277° |
| 2026-05-06 12:01 | 26.34342 | 49.72317 | 6100 ft | 269 kts | 259° |
| 2026-05-06 12:01 | 26.33824 | 49.70327 | 6757 ft | 269 kts | 244° |
| 2026-05-06 12:01 | 26.33051 | 49.68427 | 7465 ft | 268 kts | 245° |
| 2026-05-06 12:01 | 26.32331 | 49.66522 | 8073 ft | 273 kts | 247° |
| 2026-05-06 12:02 | 26.31633 | 49.64551 | 8784 ft | 273 kts | 248° |
| 2026-05-06 12:02 | 26.31146 | 49.62501 | 9423 ft | 280 kts | 268° |
| 2026-05-06 12:02 | 26.31537 | 49.60354 | 10022 ft | 287 kts | 290° |
| 2026-05-06 12:02 | 26.32443 | 49.58351 | 10659 ft | 292 kts | 297° |
| 2026-05-06 12:03 | 26.33478 | 49.56373 | 11219 ft | 298 kts | 298° |
| 2026-05-06 12:03 | 26.34540 | 49.54398 | 11943 ft | 297 kts | 298° |
| 2026-05-06 12:03 | 26.35611 | 49.52401 | 12491 ft | 303 kts | 298° |
| 2026-05-06 12:03 | 26.36690 | 49.50366 | 13121 ft | 305 kts | 298° |
| 2026-05-06 12:04 | 26.37767 | 49.48314 | 13738 ft | 309 kts | 298° |
| 2026-05-06 12:04 | 26.38845 | 49.46248 | 14340 ft | 309 kts | 298° |
| 2026-05-06 12:04 | 26.39920 | 49.44176 | 14981 ft | 310 kts | 298° |
| 2026-05-06 12:04 | 26.41002 | 49.42085 | 15573 ft | 313 kts | 298° |
| 2026-05-06 12:05 | 26.42089 | 49.39976 | 16185 ft | 314 kts | 297° |
| 2026-05-06 12:05 | 26.43180 | 49.37859 | 16788 ft | 316 kts | 297° |
| 2026-05-06 12:05 | 26.44280 | 49.35722 | 17338 ft | 320 kts | 297° |
| 2026-05-06 12:05 | 26.45389 | 49.33567 | 17947 ft | 321 kts | 297° |
| 2026-05-06 12:06 | 26.46506 | 49.31393 | 18473 ft | 324 kts | 297° |
| 2026-05-06 12:06 | 26.47630 | 49.29209 | 19001 ft | 326 kts | 297° |
| 2026-05-06 12:06 | 26.48761 | 49.27010 | 19516 ft | 327 kts | 297° |
| 2026-05-06 12:06 | 26.49898 | 49.24800 | 20042 ft | 329 kts | 296° |
| 2026-05-06 12:07 | 26.51020 | 49.22566 | 20552 ft | 331 kts | 295° |
| 2026-05-06 12:07 | 26.52129 | 49.20309 | 21064 ft | 332 kts | 295° |
| 2026-05-06 12:07 | 26.53224 | 49.18065 | 21553 ft | 335 kts | 295° |
| 2026-05-06 12:07 | 26.54341 | 49.15777 | 22046 ft | 337 kts | 295° |
| 2026-05-06 12:08 | 26.55468 | 49.13473 | 22536 ft | 339 kts | 295° |
| 2026-05-06 12:08 | 26.56602 | 49.11154 | 23028 ft | 341 kts | 295° |
| 2026-05-06 12:08 | 26.57740 | 49.08826 | 23491 ft | 343 kts | 294° |
| 2026-05-06 12:08 | 26.58886 | 49.06483 | 23893 ft | 345 kts | 294° |
| 2026-05-06 12:09 | 26.60038 | 49.04131 | 24305 ft | 345 kts | 294° |
| 2026-05-06 12:09 | 26.61194 | 49.01769 | 24727 ft | 346 kts | 294° |
| 2026-05-06 12:09 | 26.62353 | 48.99403 | 25138 ft | 348 kts | 294° |
| 2026-05-06 12:09 | 26.63518 | 48.97030 | 25530 ft | 349 kts | 294° |
| 2026-05-06 12:10 | 26.64689 | 48.94645 | 25906 ft | 351 kts | 294° |
| 2026-05-06 12:10 | 26.65863 | 48.92249 | 26300 ft | 352 kts | 293° |
| 2026-05-06 12:10 | 26.67039 | 48.89849 | 26758 ft | 350 kts | 293° |
| 2026-05-06 12:10 | 26.68202 | 48.87475 | 27284 ft | 347 kts | 293° |
| 2026-05-06 12:11 | 26.69356 | 48.85116 | 27797 ft | 344 kts | 292° |
| 2026-05-06 12:11 | 26.70500 | 48.82771 | 28254 ft | 343 kts | 292° |
| 2026-05-06 12:11 | 26.71639 | 48.80436 | 28692 ft | 341 kts | 292° |
| 2026-05-06 12:11 | 26.72773 | 48.78109 | 29152 ft | 339 kts | 292° |
| 2026-05-06 12:12 | 26.73900 | 48.75798 | 29619 ft | 337 kts | 292° |
| 2026-05-06 12:12 | 26.75021 | 48.73502 | 30032 ft | 336 kts | 291° |
| 2026-05-06 12:12 | 26.76045 | 48.71217 | 30340 ft | 329 kts | 282° |
| 2026-05-06 12:12 | 26.76529 | 48.68762 | 30614 ft | 319 kts | 268° |
| 2026-05-06 12:13 | 26.76548 | 48.66300 | 30977 ft | 314 kts | 265° |
| 2026-05-06 12:13 | 26.76478 | 48.63870 | 31306 ft | 312 kts | 264° |
| 2026-05-06 12:13 | 26.76389 | 48.61451 | 31599 ft | 311 kts | 264° |
| 2026-05-06 12:13 | 26.76304 | 48.59035 | 31928 ft | 309 kts | 264° |
| 2026-05-06 12:14 | 26.76226 | 48.56639 | 32238 ft | 307 kts | 263° |
| 2026-05-06 12:14 | 26.76153 | 48.54251 | 32497 ft | 307 kts | 263° |
| 2026-05-06 12:14 | 26.76084 | 48.51865 | 32764 ft | 306 kts | 263° |
| 2026-05-06 12:14 | 26.76017 | 48.49489 | 33050 ft | 305 kts | 263° |
| 2026-05-06 12:15 | 26.75952 | 48.47126 | 33325 ft | 303 kts | 263° |
| 2026-05-06 12:15 | 26.75884 | 48.44744 | 33273 ft | 312 kts | 263° |
| 2026-05-06 12:15 | 26.75813 | 48.42264 | 33070 ft | 325 kts | 263° |
| 2026-05-06 12:15 | 26.75741 | 48.39690 | 32902 ft | 337 kts | 264° |
| 2026-05-06 12:16 | 26.75594 | 48.34338 | 32963 ft | 350 kts | 264° |
| 2026-05-06 12:16 | 26.75443 | 48.28813 | 33056 ft | 361 kts | 264° |
| 2026-05-06 12:17 | 26.75285 | 48.23115 | 33157 ft | 371 kts | 264° |
| 2026-05-06 12:17 | 26.75119 | 48.17263 | 33250 ft | 381 kts | 264° |
| 2026-05-06 12:18 | 26.74945 | 48.11253 | 33343 ft | 391 kts | 264° |
| 2026-05-06 12:18 | 26.74765 | 48.05107 | 33430 ft | 399 kts | 264° |
| 2026-05-06 12:19 | 26.74578 | 47.98881 | 33517 ft | 407 kts | 264° |
| 2026-05-06 12:19 | 26.74385 | 47.92505 | 33668 ft | 412 kts | 264° |
| 2026-05-06 12:20 | 26.74289 | 47.89310 | 33829 ft | 409 kts | 264° |
| 2026-05-06 12:20 | 26.74316 | 47.86118 | 33890 ft | 411 kts | 268° |
| 2026-05-06 12:20 | 26.74650 | 47.79724 | 33908 ft | 413 kts | 269° |
| 2026-05-06 12:21 | 26.75008 | 47.73297 | 33917 ft | 414 kts | 268° |
| 2026-05-06 12:21 | 26.75342 | 47.66846 | 33917 ft | 415 kts | 268° |
| 2026-05-06 12:22 | 26.75659 | 47.60435 | 33916 ft | 415 kts | 268° |
| 2026-05-06 12:22 | 26.75973 | 47.53982 | 33919 ft | 415 kts | 268° |
| 2026-05-06 12:23 | 26.76283 | 47.47537 | 33924 ft | 414 kts | 268° |
| 2026-05-06 12:23 | 26.76591 | 47.41102 | 33924 ft | 414 kts | 268° |
| 2026-05-06 12:24 | 26.77161 | 47.34669 | 33927 ft | 418 kts | 274° |
| 2026-05-06 12:24 | 26.78181 | 47.28257 | 33930 ft | 418 kts | 274° |
| 2026-05-06 12:25 | 26.79195 | 47.21857 | 33936 ft | 417 kts | 274° |
| 2026-05-06 12:25 | 26.80187 | 47.15464 | 33931 ft | 417 kts | 274° |
| 2026-05-06 12:26 | 26.81168 | 47.09069 | 33929 ft | 416 kts | 273° |
| 2026-05-06 12:26 | 26.82136 | 47.02721 | 33936 ft | 416 kts | 273° |
| 2026-05-06 12:27 | 26.83106 | 46.96343 | 33933 ft | 416 kts | 273° |
| 2026-05-06 12:27 | 26.84073 | 46.89965 | 33945 ft | 415 kts | 273° |
| 2026-05-06 12:28 | 26.85036 | 46.83595 | 33935 ft | 415 kts | 273° |
| 2026-05-06 12:28 | 26.85996 | 46.77219 | 33939 ft | 415 kts | 273° |
| 2026-05-06 12:29 | 26.86952 | 46.70855 | 33952 ft | 414 kts | 273° |
| 2026-05-06 12:29 | 26.87905 | 46.64492 | 33951 ft | 414 kts | 273° |
| 2026-05-06 12:30 | 26.88854 | 46.58125 | 33955 ft | 414 kts | 273° |
| 2026-05-06 12:30 | 26.89799 | 46.51763 | 33950 ft | 414 kts | 273° |
| 2026-05-06 12:31 | 26.90740 | 46.45401 | 33956 ft | 414 kts | 273° |
| 2026-05-06 12:31 | 26.91681 | 46.39044 | 33954 ft | 414 kts | 273° |
| 2026-05-06 12:32 | 26.92627 | 46.32682 | 33959 ft | 414 kts | 273° |
| 2026-05-06 12:32 | 26.93573 | 46.26320 | 33955 ft | 414 kts | 273° |
| 2026-05-06 12:33 | 26.94512 | 46.19964 | 33958 ft | 413 kts | 272° |
| 2026-05-06 12:33 | 26.95447 | 46.13603 | 33964 ft | 414 kts | 272° |
| 2026-05-06 12:34 | 26.96379 | 46.07239 | 33959 ft | 414 kts | 272° |
| 2026-05-06 12:34 | 26.97307 | 46.00879 | 33959 ft | 413 kts | 272° |
| 2026-05-06 12:35 | 26.98232 | 45.94518 | 33959 ft | 413 kts | 272° |
| 2026-05-06 12:35 | 26.99154 | 45.88158 | 33960 ft | 413 kts | 272° |
| 2026-05-06 12:36 | 27.00065 | 45.81845 | 33959 ft | 413 kts | 272° |
| 2026-05-06 12:36 | 27.00980 | 45.75489 | 33961 ft | 413 kts | 272° |
| 2026-05-06 12:37 | 27.01891 | 45.69134 | 33960 ft | 413 kts | 272° |
| 2026-05-06 12:37 | 27.02798 | 45.62774 | 33960 ft | 413 kts | 272° |
| 2026-05-06 12:38 | 27.03706 | 45.56417 | 33960 ft | 413 kts | 272° |
| 2026-05-06 12:38 | 27.04610 | 45.50061 | 33967 ft | 413 kts | 272° |
| 2026-05-06 12:39 | 27.05509 | 45.43696 | 33964 ft | 412 kts | 271° |
| 2026-05-06 12:39 | 27.06258 | 45.37326 | 33965 ft | 411 kts | 270° |
| 2026-05-06 12:40 | 27.06945 | 45.30961 | 33966 ft | 411 kts | 270° |
| 2026-05-06 12:40 | 27.07636 | 45.24632 | 33968 ft | 411 kts | 270° |
| 2026-05-06 12:41 | 27.08339 | 45.18256 | 33965 ft | 412 kts | 270° |
| 2026-05-06 12:41 | 27.09044 | 45.11876 | 33966 ft | 412 kts | 270° |
| 2026-05-06 12:42 | 27.09746 | 45.05493 | 33964 ft | 412 kts | 270° |
| 2026-05-06 12:42 | 27.10333 | 45.00138 | 33961 ft | 412 kts | 270° |
| 2026-05-06 12:43 | 27.11024 | 44.93800 | 33964 ft | 412 kts | 270° |
| 2026-05-06 12:43 | 27.11717 | 44.87409 | 33962 ft | 412 kts | 270° |
| 2026-05-06 12:44 | 27.12405 | 44.81029 | 33962 ft | 412 kts | 270° |
| 2026-05-06 12:44 | 27.13094 | 44.74631 | 33962 ft | 413 kts | 270° |
| 2026-05-06 12:45 | 27.13783 | 44.68227 | 33964 ft | 413 kts | 270° |
| 2026-05-06 12:46 | 27.14813 | 44.58626 | 33964 ft | 413 kts | 270° |
| 2026-05-06 12:46 | 27.15492 | 44.52220 | 33959 ft | 413 kts | 270° |
| 2026-05-06 12:47 | 27.16171 | 44.45809 | 33964 ft | 413 kts | 270° |
| 2026-05-06 12:47 | 27.17581 | 44.39489 | 33977 ft | 429 kts | 287° |
| 2026-05-06 12:48 | 27.20890 | 44.33755 | 33954 ft | 452 kts | 305° |
| 2026-05-06 12:48 | 27.25424 | 44.28863 | 33972 ft | 456 kts | 308° |
| 2026-05-06 12:49 | 27.30081 | 44.24017 | 33966 ft | 456 kts | 307° |
| 2026-05-06 12:49 | 27.34695 | 44.19131 | 33975 ft | 455 kts | 307° |
| 2026-05-06 12:50 | 27.39267 | 44.14220 | 33970 ft | 454 kts | 307° |
| 2026-05-06 12:50 | 27.43822 | 44.09303 | 33979 ft | 453 kts | 307° |
| 2026-05-06 12:51 | 27.48371 | 44.04388 | 33972 ft | 453 kts | 306° |
| 2026-05-06 12:51 | 27.52911 | 43.99479 | 33979 ft | 452 kts | 306° |
| 2026-05-06 12:52 | 27.57446 | 43.94571 | 33980 ft | 452 kts | 306° |
| 2026-05-06 12:52 | 27.61978 | 43.89660 | 33978 ft | 452 kts | 306° |
| 2026-05-06 12:53 | 27.66507 | 43.84744 | 33988 ft | 452 kts | 306° |
| 2026-05-06 12:53 | 27.71035 | 43.79824 | 33984 ft | 452 kts | 306° |
| 2026-05-06 12:54 | 27.75563 | 43.74896 | 33990 ft | 452 kts | 306° |
| 2026-05-06 12:54 | 27.80089 | 43.69962 | 33993 ft | 452 kts | 306° |
| 2026-05-06 12:55 | 27.84589 | 43.65057 | 33988 ft | 452 kts | 306° |
| 2026-05-06 12:55 | 27.88951 | 43.59976 | 33987 ft | 449 kts | 303° |
| 2026-05-06 12:56 | 27.93186 | 43.54800 | 33979 ft | 448 kts | 303° |
| 2026-05-06 12:56 | 27.97422 | 43.49634 | 33994 ft | 448 kts | 303° |
| 2026-05-06 12:57 | 28.01676 | 43.44478 | 34000 ft | 448 kts | 303° |
| 2026-05-06 12:57 | 28.05945 | 43.39316 | 33999 ft | 449 kts | 303° |
| 2026-05-06 12:58 | 28.10208 | 43.34159 | 33992 ft | 449 kts | 303° |
| 2026-05-06 12:58 | 28.14471 | 43.28993 | 34001 ft | 448 kts | 303° |
| 2026-05-06 12:59 | 28.18726 | 43.23830 | 33996 ft | 448 kts | 303° |
| 2026-05-06 12:59 | 28.22974 | 43.18668 | 34001 ft | 448 kts | 303° |
| 2026-05-06 13:00 | 28.27223 | 43.13498 | 33999 ft | 448 kts | 303° |
| 2026-05-06 13:00 | 28.31472 | 43.08322 | 34007 ft | 448 kts | 303° |
| 2026-05-06 13:01 | 28.35712 | 43.03151 | 34002 ft | 447 kts | 303° |
| 2026-05-06 13:01 | 28.39917 | 42.98014 | 34011 ft | 447 kts | 303° |
| 2026-05-06 13:02 | 28.44148 | 42.92841 | 34012 ft | 446 kts | 303° |
| 2026-05-06 13:02 | 28.48374 | 42.87664 | 34016 ft | 446 kts | 303° |
| 2026-05-06 13:03 | 28.52593 | 42.82490 | 34013 ft | 446 kts | 303° |
| 2026-05-06 13:03 | 28.56814 | 42.77306 | 34016 ft | 446 kts | 303° |
| 2026-05-06 13:04 | 28.61020 | 42.72131 | 34017 ft | 446 kts | 303° |
| 2026-05-06 13:04 | 28.65230 | 42.66951 | 34022 ft | 445 kts | 303° |
| 2026-05-06 13:05 | 28.69409 | 42.61812 | 34027 ft | 445 kts | 303° |
| 2026-05-06 13:05 | 28.73608 | 42.56638 | 34030 ft | 444 kts | 303° |
| 2026-05-06 13:06 | 28.77800 | 42.51460 | 34028 ft | 444 kts | 303° |
| 2026-05-06 13:06 | 28.81983 | 42.46284 | 34033 ft | 444 kts | 303° |
| 2026-05-06 13:07 | 28.86164 | 42.41104 | 34033 ft | 443 kts | 303° |
| 2026-05-06 13:07 | 28.90341 | 42.35921 | 34036 ft | 443 kts | 303° |
| 2026-05-06 13:08 | 28.94513 | 42.30737 | 34038 ft | 443 kts | 303° |
| 2026-05-06 13:08 | 28.98679 | 42.25551 | 34042 ft | 443 kts | 303° |
| 2026-05-06 13:09 | 29.02844 | 42.20363 | 34037 ft | 443 kts | 303° |
| 2026-05-06 13:09 | 29.07009 | 42.15175 | 34040 ft | 443 kts | 303° |
| 2026-05-06 13:10 | 29.11174 | 42.09989 | 34048 ft | 443 kts | 303° |
| 2026-05-06 13:10 | 29.15335 | 42.04794 | 34051 ft | 442 kts | 303° |
| 2026-05-06 13:11 | 29.19488 | 41.99597 | 34051 ft | 442 kts | 303° |
| 2026-05-06 13:11 | 29.23641 | 41.94392 | 34058 ft | 442 kts | 303° |
| 2026-05-06 13:12 | 29.27789 | 41.89187 | 34057 ft | 442 kts | 303° |
| 2026-05-06 13:12 | 29.31908 | 41.84011 | 34055 ft | 442 kts | 303° |
| 2026-05-06 13:13 | 29.36051 | 41.78799 | 34060 ft | 443 kts | 303° |
| 2026-05-06 13:13 | 29.40193 | 41.73580 | 34066 ft | 443 kts | 303° |
| 2026-05-06 13:14 | 29.44337 | 41.68353 | 34073 ft | 443 kts | 303° |
| 2026-05-06 13:14 | 29.48477 | 41.63123 | 34068 ft | 443 kts | 303° |
| 2026-05-06 13:15 | 29.52615 | 41.57889 | 34069 ft | 443 kts | 303° |
| 2026-05-06 13:15 | 29.56749 | 41.52652 | 34072 ft | 443 kts | 303° |
| 2026-05-06 13:16 | 29.60880 | 41.47411 | 34076 ft | 442 kts | 303° |
| 2026-05-06 13:16 | 29.65009 | 41.42165 | 34082 ft | 442 kts | 303° |
| 2026-05-06 13:17 | 29.69136 | 41.36912 | 34082 ft | 442 kts | 303° |
| 2026-05-06 13:17 | 29.73236 | 41.31693 | 34083 ft | 442 kts | 303° |
| 2026-05-06 13:18 | 29.77757 | 41.26774 | 34091 ft | 450 kts | 309° |
| 2026-05-06 13:18 | 29.82467 | 41.22023 | 34086 ft | 450 kts | 310° |
| 2026-05-06 13:19 | 29.87162 | 41.17263 | 34080 ft | 449 kts | 309° |
| 2026-05-06 13:19 | 29.91825 | 41.12483 | 34087 ft | 449 kts | 309° |
| 2026-05-06 13:20 | 29.96484 | 41.07684 | 34082 ft | 448 kts | 309° |
| 2026-05-06 13:20 | 30.01130 | 41.02889 | 34088 ft | 448 kts | 309° |
| 2026-05-06 13:21 | 30.05780 | 40.98087 | 34084 ft | 448 kts | 309° |
| 2026-05-06 13:21 | 30.10425 | 40.93282 | 34083 ft | 448 kts | 309° |
| 2026-05-06 13:22 | 30.15068 | 40.88475 | 34077 ft | 448 kts | 309° |
| 2026-05-06 13:22 | 30.19713 | 40.83658 | 34076 ft | 448 kts | 309° |
| 2026-05-06 13:23 | 30.24353 | 40.78839 | 34076 ft | 448 kts | 309° |
| 2026-05-06 13:23 | 30.28986 | 40.74020 | 34080 ft | 448 kts | 309° |
| 2026-05-06 13:24 | 30.33618 | 40.69193 | 34075 ft | 448 kts | 309° |
| 2026-05-06 13:24 | 30.38248 | 40.64366 | 34080 ft | 448 kts | 309° |
| 2026-05-06 13:25 | 30.42908 | 40.59567 | 34075 ft | 448 kts | 310° |
| 2026-05-06 13:25 | 30.47597 | 40.54792 | 34079 ft | 449 kts | 310° |
| 2026-05-06 13:26 | 30.52246 | 40.50043 | 34066 ft | 448 kts | 310° |
| 2026-05-06 13:26 | 30.56923 | 40.45246 | 34066 ft | 448 kts | 310° |
| 2026-05-06 13:27 | 30.61588 | 40.40449 | 34066 ft | 448 kts | 310° |
| 2026-05-06 13:27 | 30.66249 | 40.35650 | 34059 ft | 448 kts | 310° |
| 2026-05-06 13:28 | 30.70908 | 40.30846 | 34060 ft | 447 kts | 310° |
| 2026-05-06 13:28 | 30.75559 | 40.26046 | 34054 ft | 447 kts | 310° |
| 2026-05-06 13:29 | 30.79416 | 40.22059 | 34058 ft | 446 kts | 310° |
| 2026-05-06 13:29 | 30.84809 | 40.16477 | 34049 ft | 446 kts | 310° |
| 2026-05-06 13:30 | 30.89439 | 40.11679 | 34054 ft | 445 kts | 310° |
| 2026-05-06 13:30 | 30.94064 | 40.06878 | 34044 ft | 445 kts | 310° |
| 2026-05-06 13:31 | 30.98684 | 40.02076 | 34046 ft | 445 kts | 310° |
| 2026-05-06 13:31 | 31.02519 | 39.98085 | 34045 ft | 444 kts | 310° |
| 2026-05-06 13:32 | 31.07130 | 39.93280 | 34042 ft | 444 kts | 310° |
| 2026-05-06 13:32 | 31.11738 | 39.88472 | 34041 ft | 444 kts | 310° |
| 2026-05-06 13:33 | 31.16336 | 39.83668 | 34043 ft | 443 kts | 310° |
| 2026-05-06 13:33 | 31.20935 | 39.78856 | 34038 ft | 443 kts | 310° |
| 2026-05-06 13:34 | 31.25497 | 39.74075 | 34046 ft | 443 kts | 310° |
| 2026-05-06 13:34 | 31.30079 | 39.69266 | 34036 ft | 442 kts | 309° |
| 2026-05-06 13:35 | 31.34657 | 39.64455 | 34031 ft | 442 kts | 309° |
| 2026-05-06 13:35 | 31.39220 | 39.59649 | 34029 ft | 441 kts | 309° |
| 2026-05-06 13:36 | 31.43775 | 39.54851 | 34030 ft | 440 kts | 309° |
| 2026-05-06 13:36 | 31.48323 | 39.50062 | 34035 ft | 439 kts | 309° |
| 2026-05-06 13:37 | 31.52863 | 39.45274 | 34045 ft | 438 kts | 309° |
| 2026-05-06 13:37 | 31.57385 | 39.40492 | 34034 ft | 437 kts | 309° |
| 2026-05-06 13:38 | 31.61898 | 39.35710 | 34041 ft | 437 kts | 309° |
| 2026-05-06 13:38 | 31.66400 | 39.30933 | 34041 ft | 436 kts | 309° |
| 2026-05-06 13:39 | 31.70889 | 39.26161 | 34036 ft | 435 kts | 309° |
| 2026-05-06 13:39 | 31.75380 | 39.21379 | 34046 ft | 435 kts | 309° |
| 2026-05-06 13:40 | 31.79959 | 39.16696 | 34036 ft | 442 kts | 315° |
| 2026-05-06 13:40 | 31.82604 | 39.14761 | 34037 ft | 454 kts | 323° |
| 2026-05-06 13:40 | 31.85438 | 39.13100 | 34051 ft | 456 kts | 324° |
| 2026-05-06 13:41 | 31.91114 | 39.09865 | 34046 ft | 456 kts | 324° |
| 2026-05-06 13:41 | 31.96794 | 39.06543 | 34052 ft | 455 kts | 324° |
| 2026-05-06 13:42 | 32.02455 | 39.03189 | 34052 ft | 455 kts | 324° |